sensor_id;sensor_type;location;lat;lon;timestamp;temperature;humidity
22526;DHT22;11429;50.842;4.386;2023-08-21T00:01:52;21.60;99.90
22526;DHT22;11429;50.842;4.386;2023-08-21T00:04:18;21.80;99.90
22526;DHT22;11429;50.842;4.386;2023-08-21T00:06:43;21.90;99.90
22526;DHT22;11429;50.842;4.386;2023-08-21T00:09:09;21.70;99.90
22526;DHT22;11429;50.842;4.386;2023-08-21T00:11:35;21.90;99.90
22526;DHT22;11429;50.842;4.386;2023-08-21T00:14:01;22.20;99.90
22526;DHT22;11429;50.842;4.386;2023-08-21T00:16:28;22.00;99.90
22526;DHT22;11429;50.842;4.386;2023-08-21T00:18:57;22.00;99.90
22526;DHT22;11429;50.842;4.386;2023-08-21T00:21:23;21.70;99.90
22526;DHT22;11429;50.842;4.386;2023-08-21T00:23:49;21.80;99.90
22526;DHT22;11429;50.842;4.386;2023-08-21T00:26:14;22.10;99.90
22526;DHT22;11429;50.842;4.386;2023-08-21T00:28:40;22.60;99.90
22526;DHT22;11429;50.842;4.386;2023-08-21T00:31:06;22.50;99.90
22526;DHT22;11429;50.842;4.386;2023-08-21T00:33:32;22.10;99.90
22526;DHT22;11429;50.842;4.386;2023-08-21T00:35:59;21.60;99.90
22526;DHT22;11429;50.842;4.386;2023-08-21T00:38:25;21.50;99.90
22526;DHT22;11429;50.842;4.386;2023-08-21T00:40:52;21.40;99.90
22526;DHT22;11429;50.842;4.386;2023-08-21T00:43:18;21.60;99.90
22526;DHT22;11429;50.842;4.386;2023-08-21T00:45:45;21.60;99.90
22526;DHT22;11429;50.842;4.386;2023-08-21T00:48:12;21.60;99.90
22526;DHT22;11429;50.842;4.386;2023-08-21T00:50:40;21.70;99.90
22526;DHT22;11429;50.842;4.386;2023-08-21T00:53:15;22.10;99.90
22526;DHT22;11429;50.842;4.386;2023-08-21T00:55:42;22.00;99.90
22526;DHT22;11429;50.842;4.386;2023-08-21T00:58:10;22.00;99.90
22526;DHT22;11429;50.842;4.386;2023-08-21T01:00:40;21.90;99.90
22526;DHT22;11429;50.842;4.386;2023-08-21T01:03:06;21.50;99.90
22526;DHT22;11429;50.842;4.386;2023-08-21T01:05:32;21.20;99.90
22526;DHT22;11429;50.842;4.386;2023-08-21T01:14:17;21.50;99.90
22526;DHT22;11429;50.842;4.386;2023-08-21T01:16:44;21.20;99.90
22526;DHT22;11429;50.842;4.386;2023-08-21T01:19:36;21.50;99.90
22526;DHT22;11429;50.842;4.386;2023-08-21T01:22:03;21.70;99.90
22526;DHT22;11429;50.842;4.386;2023-08-21T01:24:29;21.60;99.90
22526;DHT22;11429;50.842;4.386;2023-08-21T01:26:54;21.70;99.90
22526;DHT22;11429;50.842;4.386;2023-08-21T01:29:20;21.90;99.90
22526;DHT22;11429;50.842;4.386;2023-08-21T01:31:52;21.80;99.90
22526;DHT22;11429;50.842;4.386;2023-08-21T01:34:22;21.70;99.90
22526;DHT22;11429;50.842;4.386;2023-08-21T01:36:48;21.60;99.90
22526;DHT22;11429;50.842;4.386;2023-08-21T01:39:14;21.60;99.90
22526;DHT22;11429;50.842;4.386;2023-08-21T01:41:41;21.80;99.90
22526;DHT22;11429;50.842;4.386;2023-08-21T01:44:07;21.90;99.90
22526;DHT22;11429;50.842;4.386;2023-08-21T01:46:33;21.70;99.90
22526;DHT22;11429;50.842;4.386;2023-08-21T01:48:59;21.60;99.90
22526;DHT22;11429;50.842;4.386;2023-08-21T01:51:24;21.40;99.90
22526;DHT22;11429;50.842;4.386;2023-08-21T01:53:50;21.40;99.90
22526;DHT22;11429;50.842;4.386;2023-08-21T01:56:16;21.30;99.90
22526;DHT22;11429;50.842;4.386;2023-08-21T01:58:41;20.90;99.90
22526;DHT22;11429;50.842;4.386;2023-08-21T02:01:07;20.60;99.90
22526;DHT22;11429;50.842;4.386;2023-08-21T02:03:33;20.50;99.90
22526;DHT22;11429;50.842;4.386;2023-08-21T02:05:59;20.80;99.90
22526;DHT22;11429;50.842;4.386;2023-08-21T02:08:30;21.00;99.90
22526;DHT22;11429;50.842;4.386;2023-08-21T02:10:57;21.20;99.90
22526;DHT22;11429;50.842;4.386;2023-08-21T02:13:23;21.30;99.90
22526;DHT22;11429;50.842;4.386;2023-08-21T02:15:48;21.40;99.90
22526;DHT22;11429;50.842;4.386;2023-08-21T02:18:23;21.40;99.90
22526;DHT22;11429;50.842;4.386;2023-08-21T02:20:49;21.40;99.90
22526;DHT22;11429;50.842;4.386;2023-08-21T02:23:15;21.40;99.90
22526;DHT22;11429;50.842;4.386;2023-08-21T02:25:41;21.40;99.90
22526;DHT22;11429;50.842;4.386;2023-08-21T02:28:07;21.20;99.90
22526;DHT22;11429;50.842;4.386;2023-08-21T02:30:32;21.30;99.90
22526;DHT22;11429;50.842;4.386;2023-08-21T02:32:58;21.30;99.90
22526;DHT22;11429;50.842;4.386;2023-08-21T02:35:24;21.20;99.90
22526;DHT22;11429;50.842;4.386;2023-08-21T02:37:50;21.20;99.90
22526;DHT22;11429;50.842;4.386;2023-08-21T02:40:15;21.10;99.90
22526;DHT22;11429;50.842;4.386;2023-08-21T02:42:41;21.10;99.90
22526;DHT22;11429;50.842;4.386;2023-08-21T02:45:08;21.00;99.90
22526;DHT22;11429;50.842;4.386;2023-08-21T02:47:42;21.10;99.90
22526;DHT22;11429;50.842;4.386;2023-08-21T02:50:09;21.10;99.90
22526;DHT22;11429;50.842;4.386;2023-08-21T02:52:35;21.20;99.90
22526;DHT22;11429;50.842;4.386;2023-08-21T02:55:02;21.20;99.90
22526;DHT22;11429;50.842;4.386;2023-08-21T02:57:28;21.10;99.90
22526;DHT22;11429;50.842;4.386;2023-08-21T02:59:54;21.00;99.90
22526;DHT22;11429;50.842;4.386;2023-08-21T03:02:20;21.10;99.90
22526;DHT22;11429;50.842;4.386;2023-08-21T03:04:47;21.10;99.90
22526;DHT22;11429;50.842;4.386;2023-08-21T03:07:13;21.30;99.90
22526;DHT22;11429;50.842;4.386;2023-08-21T03:09:39;21.30;99.90
22526;DHT22;11429;50.842;4.386;2023-08-21T03:12:06;21.40;99.90
22526;DHT22;11429;50.842;4.386;2023-08-21T03:14:32;21.30;99.90
22526;DHT22;11429;50.842;4.386;2023-08-21T03:16:58;21.40;99.90
22526;DHT22;11429;50.842;4.386;2023-08-21T03:19:23;21.30;99.90
22526;DHT22;11429;50.842;4.386;2023-08-21T03:21:49;21.40;99.90
22526;DHT22;11429;50.842;4.386;2023-08-21T03:24:15;21.20;99.90
22526;DHT22;11429;50.842;4.386;2023-08-21T03:26:41;21.10;99.90
22526;DHT22;11429;50.842;4.386;2023-08-21T03:29:06;21.00;99.90
22526;DHT22;11429;50.842;4.386;2023-08-21T03:31:32;21.00;99.90
22526;DHT22;11429;50.842;4.386;2023-08-21T03:33:58;20.90;99.90
22526;DHT22;11429;50.842;4.386;2023-08-21T03:36:24;20.90;99.90
22526;DHT22;11429;50.842;4.386;2023-08-21T03:38:58;20.90;99.90
22526;DHT22;11429;50.842;4.386;2023-08-21T03:41:23;20.90;99.90
22526;DHT22;11429;50.842;4.386;2023-08-21T03:43:49;20.90;99.90
22526;DHT22;11429;50.842;4.386;2023-08-21T03:46:15;20.90;99.90
22526;DHT22;11429;50.842;4.386;2023-08-21T03:48:41;20.90;99.90
22526;DHT22;11429;50.842;4.386;2023-08-21T03:51:06;20.80;99.90
22526;DHT22;11429;50.842;4.386;2023-08-21T03:53:32;20.70;99.90
22526;DHT22;11429;50.842;4.386;2023-08-21T03:55:58;20.80;99.90
22526;DHT22;11429;50.842;4.386;2023-08-21T03:58:23;20.60;99.90
22526;DHT22;11429;50.842;4.386;2023-08-21T04:00:51;20.60;99.90
22526;DHT22;11429;50.842;4.386;2023-08-21T04:03:17;20.60;99.90
22526;DHT22;11429;50.842;4.386;2023-08-21T04:05:43;20.50;99.90
22526;DHT22;11429;50.842;4.386;2023-08-21T04:08:09;20.40;99.90
22526;DHT22;11429;50.842;4.386;2023-08-21T04:10:35;20.50;99.90
22526;DHT22;11429;50.842;4.386;2023-08-21T04:13:00;20.60;99.90
22526;DHT22;11429;50.842;4.386;2023-08-21T04:15:26;20.70;99.90
22526;DHT22;11429;50.842;4.386;2023-08-21T04:17:52;20.70;99.90
22526;DHT22;11429;50.842;4.386;2023-08-21T04:20:19;20.50;99.90
22526;DHT22;11429;50.842;4.386;2023-08-21T04:22:47;20.50;99.90
22526;DHT22;11429;50.842;4.386;2023-08-21T04:25:13;20.30;99.90
22526;DHT22;11429;50.842;4.386;2023-08-21T04:27:38;20.50;99.90
22526;DHT22;11429;50.842;4.386;2023-08-21T04:30:05;20.60;99.90
22526;DHT22;11429;50.842;4.386;2023-08-21T04:32:31;20.60;99.90
22526;DHT22;11429;50.842;4.386;2023-08-21T04:34:57;20.70;99.90
22526;DHT22;11429;50.842;4.386;2023-08-21T04:37:23;20.70;99.90
22526;DHT22;11429;50.842;4.386;2023-08-21T04:39:55;20.50;99.90
22526;DHT22;11429;50.842;4.386;2023-08-21T04:42:21;20.60;99.90
22526;DHT22;11429;50.842;4.386;2023-08-21T04:44:47;20.50;99.90
22526;DHT22;11429;50.842;4.386;2023-08-21T04:47:26;20.40;99.90
22526;DHT22;11429;50.842;4.386;2023-08-21T04:49:53;20.40;99.90
22526;DHT22;11429;50.842;4.386;2023-08-21T04:52:20;20.40;99.90
22526;DHT22;11429;50.842;4.386;2023-08-21T04:54:47;20.50;99.90
22526;DHT22;11429;50.842;4.386;2023-08-21T04:57:13;20.50;99.90
22526;DHT22;11429;50.842;4.386;2023-08-21T04:59:39;20.40;99.90
22526;DHT22;11429;50.842;4.386;2023-08-21T05:02:05;20.60;99.90
22526;DHT22;11429;50.842;4.386;2023-08-21T05:04:31;20.60;99.90
22526;DHT22;11429;50.842;4.386;2023-08-21T05:06:57;20.60;99.90
22526;DHT22;11429;50.842;4.386;2023-08-21T05:09:23;20.70;99.90
22526;DHT22;11429;50.842;4.386;2023-08-21T05:11:48;20.70;99.90
22526;DHT22;11429;50.842;4.386;2023-08-21T05:14:14;20.70;99.90
22526;DHT22;11429;50.842;4.386;2023-08-21T05:16:40;20.80;99.90
22526;DHT22;11429;50.842;4.386;2023-08-21T05:19:06;20.70;99.90
22526;DHT22;11429;50.842;4.386;2023-08-21T05:21:32;20.70;99.90
22526;DHT22;11429;50.842;4.386;2023-08-21T05:23:57;20.70;99.90
22526;DHT22;11429;50.842;4.386;2023-08-21T05:26:26;20.80;99.90
22526;DHT22;11429;50.842;4.386;2023-08-21T05:28:52;20.80;99.90
22526;DHT22;11429;50.842;4.386;2023-08-21T05:31:18;20.90;99.90
22526;DHT22;11429;50.842;4.386;2023-08-21T05:33:43;21.10;99.90
22526;DHT22;11429;50.842;4.386;2023-08-21T05:36:09;21.20;99.90
22526;DHT22;11429;50.842;4.386;2023-08-21T05:38:35;21.10;99.90
22526;DHT22;11429;50.842;4.386;2023-08-21T05:41:00;21.40;99.90
22526;DHT22;11429;50.842;4.386;2023-08-21T05:43:26;21.60;99.90
22526;DHT22;11429;50.842;4.386;2023-08-21T05:45:52;21.70;99.90
22526;DHT22;11429;50.842;4.386;2023-08-21T05:48:18;22.30;99.90
22526;DHT22;11429;50.842;4.386;2023-08-21T05:50:43;22.50;99.90
22526;DHT22;11429;50.842;4.386;2023-08-21T05:53:09;23.10;99.90
22526;DHT22;11429;50.842;4.386;2023-08-21T05:55:37;24.00;99.90
22526;DHT22;11429;50.842;4.386;2023-08-21T05:58:03;24.40;99.90
22526;DHT22;11429;50.842;4.386;2023-08-21T06:00:35;25.40;99.90
22526;DHT22;11429;50.842;4.386;2023-08-21T06:03:02;25.80;99.90
22526;DHT22;11429;50.842;4.386;2023-08-21T06:05:27;25.60;99.90
22526;DHT22;11429;50.842;4.386;2023-08-21T06:07:53;24.90;99.90
22526;DHT22;11429;50.842;4.386;2023-08-21T06:10:19;24.70;99.90
22526;DHT22;11429;50.842;4.386;2023-08-21T06:12:44;25.20;99.90
22526;DHT22;11429;50.842;4.386;2023-08-21T06:15:36;26.10;99.90
22526;DHT22;11429;50.842;4.386;2023-08-21T06:18:11;27.20;99.90
22526;DHT22;11429;50.842;4.386;2023-08-21T06:20:38;27.20;99.90
22526;DHT22;11429;50.842;4.386;2023-08-21T06:23:04;26.70;99.90
22526;DHT22;11429;50.842;4.386;2023-08-21T06:25:37;27.10;99.90
22526;DHT22;11429;50.842;4.386;2023-08-21T06:28:04;28.00;99.90
22526;DHT22;11429;50.842;4.386;2023-08-21T06:30:30;28.30;99.90
22526;DHT22;11429;50.842;4.386;2023-08-21T06:32:56;30.10;99.90
22526;DHT22;11429;50.842;4.386;2023-08-21T06:35:28;30.20;99.90
22526;DHT22;11429;50.842;4.386;2023-08-21T06:37:58;30.80;99.90
22526;DHT22;11429;50.842;4.386;2023-08-21T06:40:39;31.20;99.90
22526;DHT22;11429;50.842;4.386;2023-08-21T06:43:06;30.50;99.90
22526;DHT22;11429;50.842;4.386;2023-08-21T06:45:31;30.70;99.90
22526;DHT22;11429;50.842;4.386;2023-08-21T06:47:58;29.00;99.90
22526;DHT22;11429;50.842;4.386;2023-08-21T06:50:23;28.70;99.90
22526;DHT22;11429;50.842;4.386;2023-08-21T06:53:07;28.50;99.90
22526;DHT22;11429;50.842;4.386;2023-08-21T06:56:08;29.60;99.90
22526;DHT22;11429;50.842;4.386;2023-08-21T06:58:34;30.30;99.90
22526;DHT22;11429;50.842;4.386;2023-08-21T07:01:00;30.70;99.90
22526;DHT22;11429;50.842;4.386;2023-08-21T07:03:26;31.70;99.90
22526;DHT22;11429;50.842;4.386;2023-08-21T07:05:56;33.30;99.90
22526;DHT22;11429;50.842;4.386;2023-08-21T07:08:23;34.80;99.90
22526;DHT22;11429;50.842;4.386;2023-08-21T07:10:49;36.30;99.90
22526;DHT22;11429;50.842;4.386;2023-08-21T07:16:33;36.40;99.90
22526;DHT22;11429;50.842;4.386;2023-08-21T07:18:59;34.20;99.90
22526;DHT22;11429;50.842;4.386;2023-08-21T07:21:25;32.50;99.90
22526;DHT22;11429;50.842;4.386;2023-08-21T07:23:51;31.90;99.90
22526;DHT22;11429;50.842;4.386;2023-08-21T07:26:19;32.00;99.90
22526;DHT22;11429;50.842;4.386;2023-08-21T07:29:05;32.40;99.90
22526;DHT22;11429;50.842;4.386;2023-08-21T07:35:08;30.30;99.90
22526;DHT22;11429;50.842;4.386;2023-08-21T07:37:34;28.90;99.90
22526;DHT22;11429;50.842;4.386;2023-08-21T07:40:00;27.00;99.90
22526;DHT22;11429;50.842;4.386;2023-08-21T07:42:25;26.10;99.90
22526;DHT22;11429;50.842;4.386;2023-08-21T07:44:51;26.30;99.90
22526;DHT22;11429;50.842;4.386;2023-08-21T07:47:17;26.90;99.90
22526;DHT22;11429;50.842;4.386;2023-08-21T07:49:42;27.40;99.90
22526;DHT22;11429;50.842;4.386;2023-08-21T07:52:09;27.50;99.90
22526;DHT22;11429;50.842;4.386;2023-08-21T07:54:36;27.60;99.90
22526;DHT22;11429;50.842;4.386;2023-08-21T07:57:02;27.00;99.90
22526;DHT22;11429;50.842;4.386;2023-08-21T07:59:29;27.00;99.90
22526;DHT22;11429;50.842;4.386;2023-08-21T08:01:55;26.70;99.90
22526;DHT22;11429;50.842;4.386;2023-08-21T08:04:21;26.00;99.90
22526;DHT22;11429;50.842;4.386;2023-08-21T08:06:48;25.50;99.90
22526;DHT22;11429;50.842;4.386;2023-08-21T08:09:13;25.40;99.90
22526;DHT22;11429;50.842;4.386;2023-08-21T08:11:39;25.30;99.90
22526;DHT22;11429;50.842;4.386;2023-08-21T08:14:28;25.20;99.90
22526;DHT22;11429;50.842;4.386;2023-08-21T08:16:57;24.90;99.90
22526;DHT22;11429;50.842;4.386;2023-08-21T08:19:22;24.90;99.90
22526;DHT22;11429;50.842;4.386;2023-08-21T08:21:48;24.90;99.90
22526;DHT22;11429;50.842;4.386;2023-08-21T08:24:14;25.00;99.90
22526;DHT22;11429;50.842;4.386;2023-08-21T08:27:09;24.90;99.90
22526;DHT22;11429;50.842;4.386;2023-08-21T08:29:41;25.10;99.90
22526;DHT22;11429;50.842;4.386;2023-08-21T08:32:34;25.30;99.90
22526;DHT22;11429;50.842;4.386;2023-08-21T08:35:00;25.90;99.90
22526;DHT22;11429;50.842;4.386;2023-08-21T08:37:28;25.70;99.90
22526;DHT22;11429;50.842;4.386;2023-08-21T08:39:54;25.40;99.90
22526;DHT22;11429;50.842;4.386;2023-08-21T08:42:21;25.60;99.90
22526;DHT22;11429;50.842;4.386;2023-08-21T08:44:47;26.20;99.90
22526;DHT22;11429;50.842;4.386;2023-08-21T08:47:15;25.70;99.90
22526;DHT22;11429;50.842;4.386;2023-08-21T08:49:42;25.70;99.90
22526;DHT22;11429;50.842;4.386;2023-08-21T08:52:11;25.90;99.90
22526;DHT22;11429;50.842;4.386;2023-08-21T08:54:46;26.20;99.90
22526;DHT22;11429;50.842;4.386;2023-08-21T08:57:12;25.90;99.90
22526;DHT22;11429;50.842;4.386;2023-08-21T08:59:38;25.70;99.90
22526;DHT22;11429;50.842;4.386;2023-08-21T09:02:04;25.40;99.90
22526;DHT22;11429;50.842;4.386;2023-08-21T09:04:32;25.80;99.90
22526;DHT22;11429;50.842;4.386;2023-08-21T09:07:18;25.60;99.90
22526;DHT22;11429;50.842;4.386;2023-08-21T09:09:57;26.10;99.90
22526;DHT22;11429;50.842;4.386;2023-08-21T09:12:34;26.00;99.90
22526;DHT22;11429;50.842;4.386;2023-08-21T09:15:07;26.40;99.90
22526;DHT22;11429;50.842;4.386;2023-08-21T09:17:33;26.60;99.90
22526;DHT22;11429;50.842;4.386;2023-08-21T09:20:04;27.50;99.90
22526;DHT22;11429;50.842;4.386;2023-08-21T09:22:30;28.80;99.90
22526;DHT22;11429;50.842;4.386;2023-08-21T09:25:06;31.40;99.90
22526;DHT22;11429;50.842;4.386;2023-08-21T09:27:44;32.70;99.90
22526;DHT22;11429;50.842;4.386;2023-08-21T09:30:22;34.70;99.90
22526;DHT22;11429;50.842;4.386;2023-08-21T09:32:54;34.30;99.90
22526;DHT22;11429;50.842;4.386;2023-08-21T09:35:21;36.00;99.90
22526;DHT22;11429;50.842;4.386;2023-08-21T09:37:47;35.30;99.90
22526;DHT22;11429;50.842;4.386;2023-08-21T09:40:13;36.70;96.70
22526;DHT22;11429;50.842;4.386;2023-08-21T09:42:40;38.00;93.20
22526;DHT22;11429;50.842;4.386;2023-08-21T09:45:31;36.80;94.00
22526;DHT22;11429;50.842;4.386;2023-08-21T09:48:41;35.80;97.20
22526;DHT22;11429;50.842;4.386;2023-08-21T09:51:07;38.00;94.00
22526;DHT22;11429;50.842;4.386;2023-08-21T09:53:32;38.60;93.10
22526;DHT22;11429;50.842;4.386;2023-08-21T09:56:00;37.90;92.80
22526;DHT22;11429;50.842;4.386;2023-08-21T09:58:28;36.80;93.40
22526;DHT22;11429;50.842;4.386;2023-08-21T10:00:57;33.70;96.80
22526;DHT22;11429;50.842;4.386;2023-08-21T10:03:33;34.80;95.80
22526;DHT22;11429;50.842;4.386;2023-08-21T10:06:01;36.80;93.90
22526;DHT22;11429;50.842;4.386;2023-08-21T10:08:27;37.90;93.10
22526;DHT22;11429;50.842;4.386;2023-08-21T10:10:55;37.50;92.40
22526;DHT22;11429;50.842;4.386;2023-08-21T10:13:21;35.20;94.40
22526;DHT22;11429;50.842;4.386;2023-08-21T10:15:47;33.50;96.00
22526;DHT22;11429;50.842;4.386;2023-08-21T10:18:30;32.20;97.60
22526;DHT22;11429;50.842;4.386;2023-08-21T10:20:56;33.60;96.80
22526;DHT22;11429;50.842;4.386;2023-08-21T10:23:37;34.10;96.00
22526;DHT22;11429;50.842;4.386;2023-08-21T10:26:07;34.80;95.50
22526;DHT22;11429;50.842;4.386;2023-08-21T10:31:37;35.70;94.70
22526;DHT22;11429;50.842;4.386;2023-08-21T10:34:09;36.50;93.30
22526;DHT22;11429;50.842;4.386;2023-08-21T10:39:24;32.70;96.20
22526;DHT22;11429;50.842;4.386;2023-08-21T10:41:54;31.90;98.10
22526;DHT22;11429;50.842;4.386;2023-08-21T10:50:01;30.20;99.90
22526;DHT22;11429;50.842;4.386;2023-08-21T10:52:29;29.30;99.90
22526;DHT22;11429;50.842;4.386;2023-08-21T10:54:58;30.00;99.60
22526;DHT22;11429;50.842;4.386;2023-08-21T10:57:25;31.30;98.10
22526;DHT22;11429;50.842;4.386;2023-08-21T10:59:56;31.80;97.40
22526;DHT22;11429;50.842;4.386;2023-08-21T11:02:24;31.00;97.70
22526;DHT22;11429;50.842;4.386;2023-08-21T13:17:06;29.80;99.90
22526;DHT22;11429;50.842;4.386;2023-08-21T13:19:32;29.60;99.90
22526;DHT22;11429;50.842;4.386;2023-08-21T13:21:58;30.20;99.90
22526;DHT22;11429;50.842;4.386;2023-08-21T13:24:23;29.80;99.90
22526;DHT22;11429;50.842;4.386;2023-08-21T13:26:53;29.70;99.90
22526;DHT22;11429;50.842;4.386;2023-08-21T13:29:19;29.50;99.90
22526;DHT22;11429;50.842;4.386;2023-08-21T13:35:04;29.00;99.90
22526;DHT22;11429;50.842;4.386;2023-08-21T13:37:38;29.00;99.90
22526;DHT22;11429;50.842;4.386;2023-08-21T13:40:05;29.30;99.90
22526;DHT22;11429;50.842;4.386;2023-08-21T13:42:40;29.50;99.90
22526;DHT22;11429;50.842;4.386;2023-08-21T13:45:12;29.10;99.90
22526;DHT22;11429;50.842;4.386;2023-08-21T13:47:39;29.20;99.90
22526;DHT22;11429;50.842;4.386;2023-08-21T13:50:06;29.00;99.90
22526;DHT22;11429;50.842;4.386;2023-08-21T13:52:32;29.40;99.90
22526;DHT22;11429;50.842;4.386;2023-08-21T13:55:01;29.50;99.90
22526;DHT22;11429;50.842;4.386;2023-08-21T13:57:28;28.70;99.90
22526;DHT22;11429;50.842;4.386;2023-08-21T13:59:54;28.60;99.90
22526;DHT22;11429;50.842;4.386;2023-08-21T14:02:20;28.50;99.90
22526;DHT22;11429;50.842;4.386;2023-08-21T14:04:46;28.40;99.90
22526;DHT22;11429;50.842;4.386;2023-08-21T14:07:13;28.30;99.90
22526;DHT22;11429;50.842;4.386;2023-08-21T14:09:40;28.40;99.90
22526;DHT22;11429;50.842;4.386;2023-08-21T14:12:07;28.10;99.90
22526;DHT22;11429;50.842;4.386;2023-08-21T14:14:36;28.10;99.90
22526;DHT22;11429;50.842;4.386;2023-08-21T14:17:05;28.10;99.90
22526;DHT22;11429;50.842;4.386;2023-08-21T14:19:31;28.20;99.90
22526;DHT22;11429;50.842;4.386;2023-08-21T14:22:00;28.00;99.90
22526;DHT22;11429;50.842;4.386;2023-08-21T14:24:26;27.90;99.90
22526;DHT22;11429;50.842;4.386;2023-08-21T14:26:52;27.90;99.90
22526;DHT22;11429;50.842;4.386;2023-08-21T14:29:18;27.80;99.90
22526;DHT22;11429;50.842;4.386;2023-08-21T14:31:46;27.60;99.90
22526;DHT22;11429;50.842;4.386;2023-08-21T14:34:13;27.60;99.90
22526;DHT22;11429;50.842;4.386;2023-08-21T14:36:39;27.60;99.90
22526;DHT22;11429;50.842;4.386;2023-08-21T14:39:05;27.50;99.90
22526;DHT22;11429;50.842;4.386;2023-08-21T14:41:31;27.40;99.90
22526;DHT22;11429;50.842;4.386;2023-08-21T14:43:57;27.50;99.90
22526;DHT22;11429;50.842;4.386;2023-08-21T14:46:23;27.40;99.90
22526;DHT22;11429;50.842;4.386;2023-08-21T14:48:49;27.30;99.90
22526;DHT22;11429;50.842;4.386;2023-08-21T14:51:15;27.40;99.90
22526;DHT22;11429;50.842;4.386;2023-08-21T14:53:40;27.20;99.90
22526;DHT22;11429;50.842;4.386;2023-08-21T14:56:07;27.30;99.90
22526;DHT22;11429;50.842;4.386;2023-08-21T14:58:32;27.10;99.90
22526;DHT22;11429;50.842;4.386;2023-08-21T15:00:58;27.10;99.90
22526;DHT22;11429;50.842;4.386;2023-08-21T15:03:24;27.10;99.90
22526;DHT22;11429;50.842;4.386;2023-08-21T15:05:50;27.30;99.90
22526;DHT22;11429;50.842;4.386;2023-08-21T15:08:26;27.50;99.90
22526;DHT22;11429;50.842;4.386;2023-08-21T15:10:52;27.40;99.90
22526;DHT22;11429;50.842;4.386;2023-08-21T15:13:18;27.20;99.90
22526;DHT22;11429;50.842;4.386;2023-08-21T15:15:44;26.90;99.90
22526;DHT22;11429;50.842;4.386;2023-08-21T15:18:10;26.90;99.90
22526;DHT22;11429;50.842;4.386;2023-08-21T15:20:36;26.70;99.90
22526;DHT22;11429;50.842;4.386;2023-08-21T15:23:01;27.00;99.90
22526;DHT22;11429;50.842;4.386;2023-08-21T15:25:27;27.20;99.90
22526;DHT22;11429;50.842;4.386;2023-08-21T15:27:53;27.30;98.70
22526;DHT22;11429;50.842;4.386;2023-08-21T15:30:18;27.80;98.50
22526;DHT22;11429;50.842;4.386;2023-08-21T15:32:44;27.70;99.30
22526;DHT22;11429;50.842;4.386;2023-08-21T15:35:10;27.90;98.70
22526;DHT22;11429;50.842;4.386;2023-08-21T15:37:36;28.00;98.90
22526;DHT22;11429;50.842;4.386;2023-08-21T15:40:02;28.20;98.30
22526;DHT22;11429;50.842;4.386;2023-08-21T15:42:28;28.00;98.20
22526;DHT22;11429;50.842;4.386;2023-08-21T15:44:53;27.30;99.90
22526;DHT22;11429;50.842;4.386;2023-08-21T15:47:19;27.00;99.20
22526;DHT22;11429;50.842;4.386;2023-08-21T15:49:46;26.80;99.90
22526;DHT22;11429;50.842;4.386;2023-08-21T15:52:12;26.70;99.90
22526;DHT22;11429;50.842;4.386;2023-08-21T15:54:37;26.80;99.90
22526;DHT22;11429;50.842;4.386;2023-08-21T15:57:03;26.60;99.90
22526;DHT22;11429;50.842;4.386;2023-08-21T15:59:32;26.60;99.90
22526;DHT22;11429;50.842;4.386;2023-08-21T16:01:58;26.60;99.90
22526;DHT22;11429;50.842;4.386;2023-08-21T16:04:23;26.90;99.90
22526;DHT22;11429;50.842;4.386;2023-08-21T16:06:52;26.90;99.90
22526;DHT22;11429;50.842;4.386;2023-08-21T16:09:17;27.00;99.90
22526;DHT22;11429;50.842;4.386;2023-08-21T16:11:44;26.90;99.90
22526;DHT22;11429;50.842;4.386;2023-08-21T16:14:09;27.00;99.90
22526;DHT22;11429;50.842;4.386;2023-08-21T16:16:35;26.70;99.90
22526;DHT22;11429;50.842;4.386;2023-08-21T16:19:01;26.50;99.90
22526;DHT22;11429;50.842;4.386;2023-08-21T16:21:27;26.40;99.90
22526;DHT22;11429;50.842;4.386;2023-08-21T16:23:53;26.50;99.90
22526;DHT22;11429;50.842;4.386;2023-08-21T16:26:19;26.40;99.90
22526;DHT22;11429;50.842;4.386;2023-08-21T16:28:45;26.90;99.70
22526;DHT22;11429;50.842;4.386;2023-08-21T16:31:14;27.40;99.90
22526;DHT22;11429;50.842;4.386;2023-08-21T16:33:40;27.70;99.90
22526;DHT22;11429;50.842;4.386;2023-08-21T16:36:06;27.60;99.90
22526;DHT22;11429;50.842;4.386;2023-08-21T16:38:32;27.30;99.90
22526;DHT22;11429;50.842;4.386;2023-08-21T16:40:59;27.00;99.90
22526;DHT22;11429;50.842;4.386;2023-08-21T16:43:25;27.00;99.90
22526;DHT22;11429;50.842;4.386;2023-08-21T16:45:50;26.90;99.90
22526;DHT22;11429;50.842;4.386;2023-08-21T16:48:17;26.60;99.90
22526;DHT22;11429;50.842;4.386;2023-08-21T16:50:43;26.50;99.90
22526;DHT22;11429;50.842;4.386;2023-08-21T16:53:08;26.40;99.90
22526;DHT22;11429;50.842;4.386;2023-08-21T16:55:34;26.20;99.90
22526;DHT22;11429;50.842;4.386;2023-08-21T16:58:00;26.20;99.90
22526;DHT22;11429;50.842;4.386;2023-08-21T17:00:27;26.30;99.90
22526;DHT22;11429;50.842;4.386;2023-08-21T17:02:53;26.00;99.90
22526;DHT22;11429;50.842;4.386;2023-08-21T17:05:20;26.10;99.90
22526;DHT22;11429;50.842;4.386;2023-08-21T17:07:48;26.10;99.90
22526;DHT22;11429;50.842;4.386;2023-08-21T17:10:13;25.80;99.90
22526;DHT22;11429;50.842;4.386;2023-08-21T17:12:39;25.50;99.90
22526;DHT22;11429;50.842;4.386;2023-08-21T17:15:06;25.40;99.90
22526;DHT22;11429;50.842;4.386;2023-08-21T17:17:32;25.50;99.90
22526;DHT22;11429;50.842;4.386;2023-08-21T17:19:58;25.80;99.90
22526;DHT22;11429;50.842;4.386;2023-08-21T17:22:24;25.70;99.90
22526;DHT22;11429;50.842;4.386;2023-08-21T17:24:50;25.50;99.90
22526;DHT22;11429;50.842;4.386;2023-08-21T17:27:17;25.50;99.90
22526;DHT22;11429;50.842;4.386;2023-08-21T17:29:43;25.40;99.90
22526;DHT22;11429;50.842;4.386;2023-08-21T17:32:10;25.50;99.90
22526;DHT22;11429;50.842;4.386;2023-08-21T17:34:36;25.70;99.90
22526;DHT22;11429;50.842;4.386;2023-08-21T17:37:02;25.70;99.90
22526;DHT22;11429;50.842;4.386;2023-08-21T17:39:27;25.60;99.90
22526;DHT22;11429;50.842;4.386;2023-08-21T17:41:53;25.40;99.90
22526;DHT22;11429;50.842;4.386;2023-08-21T17:44:19;25.20;99.90
22526;DHT22;11429;50.842;4.386;2023-08-21T17:46:45;25.30;99.90
22526;DHT22;11429;50.842;4.386;2023-08-21T17:49:11;25.30;99.90
22526;DHT22;11429;50.842;4.386;2023-08-21T17:51:36;25.40;99.90
22526;DHT22;11429;50.842;4.386;2023-08-21T17:54:08;25.40;99.90
22526;DHT22;11429;50.842;4.386;2023-08-21T17:56:34;25.60;99.90
22526;DHT22;11429;50.842;4.386;2023-08-21T17:59:00;25.70;99.90
22526;DHT22;11429;50.842;4.386;2023-08-21T18:01:26;25.60;99.90
22526;DHT22;11429;50.842;4.386;2023-08-21T18:03:52;25.20;99.90
22526;DHT22;11429;50.842;4.386;2023-08-21T18:06:17;25.10;99.90
22526;DHT22;11429;50.842;4.386;2023-08-21T18:08:47;25.10;99.90
22526;DHT22;11429;50.842;4.386;2023-08-21T18:11:13;25.10;99.90
22526;DHT22;11429;50.842;4.386;2023-08-21T18:13:39;25.10;99.90